sensor_id;sensor_type;location;lat;lon;timestamp;pressure;altitude;pressure_sealevel;temperature;humidity
77351;BME280;66420;50.246;14.320;2023-05-10T00:01:53;99248.78;;;8.99;62.26
77351;BME280;66420;50.246;14.320;2023-05-10T00:04:39;99248.59;;;9.09;63.07
77351;BME280;66420;50.246;14.320;2023-05-10T00:07:24;99252.56;;;9.03;62.79
77351;BME280;66420;50.246;14.320;2023-05-10T00:10:09;99243.66;;;8.97;62.71
77351;BME280;66420;50.246;14.320;2023-05-10T00:12:54;99241.53;;;8.94;62.62
77351;BME280;66420;50.246;14.320;2023-05-10T00:15:38;99244.56;;;8.93;62.83
77351;BME280;66420;50.246;14.320;2023-05-10T00:18:23;99241.75;;;8.98;62.51
77351;BME280;66420;50.246;14.320;2023-05-10T00:21:08;99244.38;;;9.03;62.10
77351;BME280;66420;50.246;14.320;2023-05-10T00:23:53;99237.38;;;8.97;61.98
77351;BME280;66420;50.246;14.320;2023-05-10T00:26:38;99236.47;;;9.01;62.90
77351;BME280;66420;50.246;14.320;2023-05-10T00:29:23;99241.75;;;8.98;62.24
77351;BME280;66420;50.246;14.320;2023-05-10T00:32:08;99233.94;;;8.91;62.29
77351;BME280;66420;50.246;14.320;2023-05-10T00:34:53;99233.88;;;8.82;62.83
77351;BME280;66420;50.246;14.320;2023-05-10T00:37:39;99239.81;;;8.84;62.53
77351;BME280;66420;50.246;14.320;2023-05-10T00:40:24;99235.50;;;8.83;63.43
77351;BME280;66420;50.246;14.320;2023-05-10T00:43:08;99234.25;;;8.89;62.91
77351;BME280;66420;50.246;14.320;2023-05-10T00:45:53;99231.03;;;8.87;62.03
77351;BME280;66420;50.246;14.320;2023-05-10T00:48:38;99222.13;;;8.82;63.00
77351;BME280;66420;50.246;14.320;2023-05-10T00:51:23;99223.16;;;8.72;62.95
77351;BME280;66420;50.246;14.320;2023-05-10T00:54:10;99225.41;;;8.70;62.64
77351;BME280;66420;50.246;14.320;2023-05-10T00:56:55;99217.59;;;8.77;63.20
77351;BME280;66420;50.246;14.320;2023-05-10T00:59:41;99211.25;;;8.68;63.45
77351;BME280;66420;50.246;14.320;2023-05-10T01:02:26;99223.06;;;8.64;63.91
77351;BME280;66420;50.246;14.320;2023-05-10T01:05:12;99215.69;;;8.64;63.54
77351;BME280;66420;50.246;14.320;2023-05-10T01:07:56;99213.59;;;8.61;63.75
77351;BME280;66420;50.246;14.320;2023-05-10T01:10:42;99219.34;;;8.46;63.67
77351;BME280;66420;50.246;14.320;2023-05-10T01:13:38;99218.91;;;8.53;64.39
77351;BME280;66420;50.246;14.320;2023-05-10T01:16:24;99211.88;;;8.52;64.40
77351;BME280;66420;50.246;14.320;2023-05-10T01:19:19;99213.97;;;8.55;63.74
77351;BME280;66420;50.246;14.320;2023-05-10T01:34:07;99213.88;;;8.32;64.47
77351;BME280;66420;50.246;14.320;2023-05-10T01:37:21;99211.00;;;8.24;65.40
77351;BME280;66420;50.246;14.320;2023-05-10T01:43:23;99208.66;;;8.17;64.95
77351;BME280;66420;50.246;14.320;2023-05-10T01:46:17;99203.94;;;8.23;65.83
77351;BME280;66420;50.246;14.320;2023-05-10T01:49:04;99208.28;;;8.10;65.63
77351;BME280;66420;50.246;14.320;2023-05-10T01:51:53;99209.38;;;8.09;65.28
77351;BME280;66420;50.246;14.320;2023-05-10T01:54:43;99210.19;;;8.10;65.68
77351;BME280;66420;50.246;14.320;2023-05-10T01:57:33;99208.03;;;8.07;65.95
77351;BME280;66420;50.246;14.320;2023-05-10T02:00:19;99200.69;;;8.07;65.92
77351;BME280;66420;50.246;14.320;2023-05-10T02:03:06;99197.66;;;8.09;65.86
77351;BME280;66420;50.246;14.320;2023-05-10T02:05:53;99196.66;;;8.05;66.32
77351;BME280;66420;50.246;14.320;2023-05-10T02:08:40;99201.66;;;7.97;66.39
77351;BME280;66420;50.246;14.320;2023-05-10T02:11:26;99203.69;;;7.92;66.69
77351;BME280;66420;50.246;14.320;2023-05-10T02:14:13;99203.38;;;7.93;66.33
77351;BME280;66420;50.246;14.320;2023-05-10T02:16:59;99204.81;;;7.91;66.92
77351;BME280;66420;50.246;14.320;2023-05-10T02:19:47;99204.00;;;7.90;66.40
77351;BME280;66420;50.246;14.320;2023-05-10T02:22:32;99207.31;;;7.87;67.08
77351;BME280;66420;50.246;14.320;2023-05-10T02:25:18;99215.59;;;7.82;66.55
77351;BME280;66420;50.246;14.320;2023-05-10T02:28:04;99211.03;;;7.78;67.33
77351;BME280;66420;50.246;14.320;2023-05-10T02:30:51;99210.81;;;7.74;66.69
77351;BME280;66420;50.246;14.320;2023-05-10T02:33:38;99204.44;;;7.65;67.80
77351;BME280;66420;50.246;14.320;2023-05-10T02:36:26;99202.22;;;7.67;67.93
77351;BME280;66420;50.246;14.320;2023-05-10T02:39:12;99197.94;;;7.61;67.36
77351;BME280;66420;50.246;14.320;2023-05-10T02:41:59;99197.94;;;7.61;67.54
77351;BME280;66420;50.246;14.320;2023-05-10T02:44:49;99200.78;;;7.56;67.59
77351;BME280;66420;50.246;14.320;2023-05-10T02:47:35;99200.66;;;7.61;67.78
77351;BME280;66420;50.246;14.320;2023-05-10T02:50:21;99201.06;;;7.54;67.44
77351;BME280;66420;50.246;14.320;2023-05-10T02:53:11;99198.56;;;7.58;67.31
77351;BME280;66420;50.246;14.320;2023-05-10T02:55:59;99201.31;;;7.39;68.25
77351;BME280;66420;50.246;14.320;2023-05-10T02:58:45;99190.00;;;7.32;69.66
77351;BME280;66420;50.246;14.320;2023-05-10T03:01:30;99192.41;;;7.34;69.42
77351;BME280;66420;50.246;14.320;2023-05-10T03:04:15;99194.19;;;7.25;69.36
77351;BME280;66420;50.246;14.320;2023-05-10T03:06:59;99194.19;;;7.25;69.44
77351;BME280;66420;50.246;14.320;2023-05-10T03:09:44;99190.97;;;7.23;69.33
77351;BME280;66420;50.246;14.320;2023-05-10T03:18:44;99190.44;;;7.21;70.43
77351;BME280;66420;50.246;14.320;2023-05-10T03:21:32;99191.69;;;7.28;68.97
77351;BME280;66420;50.246;14.320;2023-05-10T03:24:22;99179.69;;;7.10;70.22
77351;BME280;66420;50.246;14.320;2023-05-10T03:27:08;99185.22;;;7.05;70.92
77351;BME280;66420;50.246;14.320;2023-05-10T03:29:53;99181.84;;;7.13;70.92
77351;BME280;66420;50.246;14.320;2023-05-10T03:32:39;99188.91;;;7.15;70.64
77351;BME280;66420;50.246;14.320;2023-05-10T03:35:24;99202.59;;;7.09;70.63
77351;BME280;66420;50.246;14.320;2023-05-10T03:38:09;99202.28;;;7.11;71.19
77351;BME280;66420;50.246;14.320;2023-05-10T03:40:54;99207.28;;;7.23;69.98
77351;BME280;66420;50.246;14.320;2023-05-10T03:43:39;99208.66;;;7.20;70.67
77351;BME280;66420;50.246;14.320;2023-05-10T03:46:25;99209.94;;;7.09;70.88
77351;BME280;66420;50.246;14.320;2023-05-10T03:49:10;99211.25;;;7.11;71.30
77351;BME280;66420;50.246;14.320;2023-05-10T03:51:55;99210.56;;;7.20;71.24
77351;BME280;66420;50.246;14.320;2023-05-10T03:54:39;99217.97;;;7.19;71.37
77351;BME280;66420;50.246;14.320;2023-05-10T03:57:24;99207.97;;;7.15;71.33
77351;BME280;66420;50.246;14.320;2023-05-10T04:00:09;99206.25;;;7.19;71.07
77351;BME280;66420;50.246;14.320;2023-05-10T04:02:54;99215.94;;;7.25;71.15
77351;BME280;66420;50.246;14.320;2023-05-10T04:05:39;99217.44;;;7.36;71.35
77351;BME280;66420;50.246;14.320;2023-05-10T04:08:24;99207.13;;;7.33;70.89
77351;BME280;66420;50.246;14.320;2023-05-10T04:11:11;99205.13;;;7.38;70.73
77351;BME280;66420;50.246;14.320;2023-05-10T04:13:56;99209.75;;;7.38;70.13
77351;BME280;66420;50.246;14.320;2023-05-10T04:16:41;99208.16;;;7.37;72.13
77351;BME280;66420;50.246;14.320;2023-05-10T04:19:30;99205.94;;;7.39;71.45
77351;BME280;66420;50.246;14.320;2023-05-10T04:22:14;99206.97;;;7.43;71.50
77351;BME280;66420;50.246;14.320;2023-05-10T04:24:59;99208.50;;;7.49;71.17
77351;BME280;66420;50.246;14.320;2023-05-10T04:27:44;99198.63;;;7.53;71.35
77351;BME280;66420;50.246;14.320;2023-05-10T04:30:29;99203.91;;;7.63;71.32
77351;BME280;66420;50.246;14.320;2023-05-10T04:33:14;99207.66;;;7.67;70.77
77351;BME280;66420;50.246;14.320;2023-05-10T04:35:59;99208.78;;;7.80;70.40
77351;BME280;66420;50.246;14.320;2023-05-10T04:38:43;99202.78;;;7.83;70.77
77351;BME280;66420;50.246;14.320;2023-05-10T04:41:28;99206.09;;;7.93;70.17
77351;BME280;66420;50.246;14.320;2023-05-10T06:21:58;99196.63;;;11.85;61.04
77351;BME280;66420;50.246;14.320;2023-05-10T06:24:43;99199.97;;;12.08;61.23
77351;BME280;66420;50.246;14.320;2023-05-10T06:27:28;99204.00;;;12.10;60.77
77351;BME280;66420;50.246;14.320;2023-05-10T06:30:14;99200.25;;;12.23;60.47
77351;BME280;66420;50.246;14.320;2023-05-10T06:32:58;99199.06;;;12.41;60.30
77351;BME280;66420;50.246;14.320;2023-05-10T06:35:43;99191.66;;;12.33;58.57
77351;BME280;66420;50.246;14.320;2023-05-10T06:38:28;99201.41;;;12.52;59.02
77351;BME280;66420;50.246;14.320;2023-05-10T06:41:12;99203.53;;;12.55;59.36
77351;BME280;66420;50.246;14.320;2023-05-10T06:43:56;99199.44;;;12.61;58.63
77351;BME280;66420;50.246;14.320;2023-05-10T06:46:41;99192.16;;;12.65;58.63
77351;BME280;66420;50.246;14.320;2023-05-10T06:49:26;99194.81;;;12.82;58.43
77351;BME280;66420;50.246;14.320;2023-05-10T06:52:11;99195.81;;;12.77;58.40
77351;BME280;66420;50.246;14.320;2023-05-10T06:54:57;99197.56;;;12.82;59.11
77351;BME280;66420;50.246;14.320;2023-05-10T06:57:42;99192.22;;;13.06;58.02
77351;BME280;66420;50.246;14.320;2023-05-10T07:00:27;99189.31;;;13.11;57.65
77351;BME280;66420;50.246;14.320;2023-05-10T07:03:11;99181.97;;;13.24;57.33
77351;BME280;66420;50.246;14.320;2023-05-10T07:06:01;99186.25;;;13.34;57.30
77351;BME280;66420;50.246;14.320;2023-05-10T07:08:47;99181.84;;;13.53;57.47
77351;BME280;66420;50.246;14.320;2023-05-10T07:11:31;99184.78;;;13.69;57.32
77351;BME280;66420;50.246;14.320;2023-05-10T07:14:16;99181.28;;;13.81;56.91
77351;BME280;66420;50.246;14.320;2023-05-10T07:17:01;99177.78;;;13.92;56.99
77351;BME280;66420;50.246;14.320;2023-05-10T07:19:45;99180.53;;;14.04;56.33
77351;BME280;66420;50.246;14.320;2023-05-10T07:22:30;99180.53;;;14.04;56.45
77351;BME280;66420;50.246;14.320;2023-05-10T07:25:15;99184.00;;;14.26;56.29
77351;BME280;66420;50.246;14.320;2023-05-10T07:27:59;99181.09;;;14.43;54.53
77351;BME280;66420;50.246;14.320;2023-05-10T07:30:44;99183.59;;;14.36;56.80
77351;BME280;66420;50.246;14.320;2023-05-10T07:33:29;99184.72;;;14.35;55.40
77351;BME280;66420;50.246;14.320;2023-05-10T07:36:14;99178.22;;;14.63;55.57
77351;BME280;66420;50.246;14.320;2023-05-10T07:38:59;99181.31;;;14.86;53.50
77351;BME280;66420;50.246;14.320;2023-05-10T07:41:43;99177.41;;;14.63;55.25
77351;BME280;66420;50.246;14.320;2023-05-10T07:44:28;99181.78;;;14.88;54.12
77351;BME280;66420;50.246;14.320;2023-05-10T07:47:12;99175.53;;;15.03;54.52
77351;BME280;66420;50.246;14.320;2023-05-10T07:49:58;99174.25;;;15.13;53.77
77351;BME280;66420;50.246;14.320;2023-05-10T07:52:43;99173.22;;;15.18;53.16
77351;BME280;66420;50.246;14.320;2023-05-10T07:55:27;99175.72;;;15.35;55.87
77351;BME280;66420;50.246;14.320;2023-05-10T07:58:12;99167.75;;;15.05;55.66
77351;BME280;66420;50.246;14.320;2023-05-10T08:00:57;99163.94;;;15.62;55.71
77351;BME280;66420;50.246;14.320;2023-05-10T08:03:42;99166.22;;;15.60;52.42
77351;BME280;66420;50.246;14.320;2023-05-10T08:06:26;99162.91;;;15.55;52.69
77351;BME280;66420;50.246;14.320;2023-05-10T08:09:13;99173.75;;;15.75;52.14
77351;BME280;66420;50.246;14.320;2023-05-10T08:11:57;99170.44;;;15.70;51.17
77351;BME280;66420;50.246;14.320;2023-05-10T08:14:43;99171.81;;;15.64;52.02
77351;BME280;66420;50.246;14.320;2023-05-10T08:17:28;99172.72;;;15.68;52.69
77351;BME280;66420;50.246;14.320;2023-05-10T08:20:13;99167.22;;;16.11;51.79
77351;BME280;66420;50.246;14.320;2023-05-10T08:23:00;99170.53;;;16.32;51.28
77351;BME280;66420;50.246;14.320;2023-05-10T08:25:45;99171.41;;;16.36;50.44
77351;BME280;66420;50.246;14.320;2023-05-10T08:28:30;99169.47;;;16.53;51.17
77351;BME280;66420;50.246;14.320;2023-05-10T08:31:15;99165.91;;;16.68;49.26
77351;BME280;66420;50.246;14.320;2023-05-10T08:34:00;99170.69;;;16.87;49.30
77351;BME280;66420;50.246;14.320;2023-05-10T08:36:45;99172.88;;;16.97;48.35
77351;BME280;66420;50.246;14.320;2023-05-10T08:39:34;99163.31;;;17.10;48.13
77351;BME280;66420;50.246;14.320;2023-05-10T08:42:22;99161.63;;;17.05;47.08
77351;BME280;66420;50.246;14.320;2023-05-10T08:45:11;99160.72;;;17.17;48.04
77351;BME280;66420;50.246;14.320;2023-05-10T08:47:56;99163.66;;;17.43;48.42
77351;BME280;66420;50.246;14.320;2023-05-10T08:50:41;99167.09;;;17.37;46.89
77351;BME280;66420;50.246;14.320;2023-05-10T08:53:28;99163.72;;;17.47;48.02
77351;BME280;66420;50.246;14.320;2023-05-10T08:56:15;99166.25;;;17.55;48.38
77351;BME280;66420;50.246;14.320;2023-05-10T08:59:00;99163.50;;;17.75;46.68
77351;BME280;66420;50.246;14.320;2023-05-10T09:01:45;99164.84;;;17.81;46.01
77351;BME280;66420;50.246;14.320;2023-05-10T09:04:32;99162.41;;;17.98;46.63
77351;BME280;66420;50.246;14.320;2023-05-10T09:07:17;99154.59;;;18.04;45.26
77351;BME280;66420;50.246;14.320;2023-05-10T09:10:04;99157.47;;;18.34;46.60
77351;BME280;66420;50.246;14.320;2023-05-10T09:12:50;99160.66;;;18.55;46.36
77351;BME280;66420;50.246;14.320;2023-05-10T09:15:35;99152.63;;;18.73;46.15
77351;BME280;66420;50.246;14.320;2023-05-10T09:18:19;99160.28;;;18.56;44.92
77351;BME280;66420;50.246;14.320;2023-05-10T09:21:04;99160.00;;;18.42;44.84
77351;BME280;66420;50.246;14.320;2023-05-10T09:23:49;99154.81;;;18.60;45.01
77351;BME280;66420;50.246;14.320;2023-05-10T09:26:35;99164.56;;;18.77;45.00
77351;BME280;66420;50.246;14.320;2023-05-10T09:29:42;99158.25;;;18.80;46.80
77351;BME280;66420;50.246;14.320;2023-05-10T09:35:24;99157.38;;;19.28;45.70
77351;BME280;66420;50.246;14.320;2023-05-10T09:38:09;99163.22;;;19.50;44.82
77351;BME280;66420;50.246;14.320;2023-05-10T09:40:55;99164.94;;;19.01;43.88
77351;BME280;66420;50.246;14.320;2023-05-10T09:43:40;99154.94;;;18.71;44.31
77351;BME280;66420;50.246;14.320;2023-05-10T09:46:25;99154.38;;;18.58;44.73
77351;BME280;66420;50.246;14.320;2023-05-10T09:49:14;99160.31;;;18.83;44.59
77351;BME280;66420;50.246;14.320;2023-05-10T09:52:06;99153.91;;;19.05;45.93
77351;BME280;66420;50.246;14.320;2023-05-10T09:54:54;99149.50;;;19.04;44.17
77351;BME280;66420;50.246;14.320;2023-05-10T09:57:39;99144.88;;;18.85;44.59
77351;BME280;66420;50.246;14.320;2023-05-10T10:00:26;99145.25;;;19.10;43.80
77351;BME280;66420;50.246;14.320;2023-05-10T10:03:19;99144.00;;;19.34;44.65
77351;BME280;66420;50.246;14.320;2023-05-10T10:06:07;99142.53;;;19.77;46.14
77351;BME280;66420;50.246;14.320;2023-05-10T10:08:52;99141.66;;;20.06;43.27
77351;BME280;66420;50.246;14.320;2023-05-10T10:11:38;99139.22;;;19.98;43.24
77351;BME280;66420;50.246;14.320;2023-05-10T10:14:24;99139.22;;;20.01;43.54
77351;BME280;66420;50.246;14.320;2023-05-10T10:17:09;99145.47;;;19.91;42.56
77351;BME280;66420;50.246;14.320;2023-05-10T10:19:55;99137.47;;;20.26;44.83
77351;BME280;66420;50.246;14.320;2023-05-10T10:22:41;99132.75;;;19.90;41.44
77351;BME280;66420;50.246;14.320;2023-05-10T10:25:28;99141.59;;;19.99;41.38
77351;BME280;66420;50.246;14.320;2023-05-10T10:28:41;99131.88;;;20.19;41.37
77351;BME280;66420;50.246;14.320;2023-05-10T10:31:40;99126.19;;;20.05;42.47
77351;BME280;66420;50.246;14.320;2023-05-10T10:34:28;99134.66;;;20.19;42.41
77351;BME280;66420;50.246;14.320;2023-05-10T10:37:13;99130.25;;;19.78;42.42
77351;BME280;66420;50.246;14.320;2023-05-10T10:39:58;99135.31;;;20.06;41.84
77351;BME280;66420;50.246;14.320;2023-05-10T10:42:47;99135.78;;;20.15;40.89
77351;BME280;66420;50.246;14.320;2023-05-10T10:45:34;99131.13;;;20.26;40.94
77351;BME280;66420;50.246;14.320;2023-05-10T10:48:20;99134.00;;;20.33;43.32
77351;BME280;66420;50.246;14.320;2023-05-10T10:51:05;99133.13;;;20.25;40.90
77351;BME280;66420;50.246;14.320;2023-05-10T10:53:50;99133.53;;;20.27;41.81
77351;BME280;66420;50.246;14.320;2023-05-10T10:56:34;99127.69;;;20.40;42.00
77351;BME280;66420;50.246;14.320;2023-05-10T10:59:26;99125.19;;;20.27;41.53
77351;BME280;66420;50.246;14.320;2023-05-10T11:02:42;99127.81;;;20.54;41.86
77351;BME280;66420;50.246;14.320;2023-05-10T11:05:43;99119.75;;;20.89;42.53
77351;BME280;66420;50.246;14.320;2023-05-10T11:08:32;99109.91;;;21.09;39.91
77351;BME280;66420;50.246;14.320;2023-05-10T11:11:17;99108.19;;;20.91;43.32
77351;BME280;66420;50.246;14.320;2023-05-10T11:14:06;99113.59;;;21.31;42.74
77351;BME280;66420;50.246;14.320;2023-05-10T11:16:52;99112.47;;;21.43;41.43
77351;BME280;66420;50.246;14.320;2023-05-10T11:19:36;99101.91;;;20.97;40.15
77351;BME280;66420;50.246;14.320;2023-05-10T11:22:24;99110.00;;;21.23;41.36
77351;BME280;66420;50.246;14.320;2023-05-10T11:25:10;99103.69;;;21.34;40.57
77351;BME280;66420;50.246;14.320;2023-05-10T11:27:55;99106.09;;;21.39;40.00
77351;BME280;66420;50.246;14.320;2023-05-10T11:30:43;99098.56;;;21.43;41.83
77351;BME280;66420;50.246;14.320;2023-05-10T11:33:28;99097.38;;;21.51;41.27
77351;BME280;66420;50.246;14.320;2023-05-10T11:36:33;99097.53;;;21.93;40.39
77351;BME280;66420;50.246;14.320;2023-05-10T11:39:18;99092.75;;;21.97;38.40
77351;BME280;66420;50.246;14.320;2023-05-10T11:42:02;99094.00;;;22.32;37.03
77351;BME280;66420;50.246;14.320;2023-05-10T11:44:47;99097.56;;;22.29;38.15
77351;BME280;66420;50.246;14.320;2023-05-10T11:47:32;99103.13;;;22.57;37.45
77351;BME280;66420;50.246;14.320;2023-05-10T11:50:17;99097.56;;;22.36;35.83
77351;BME280;66420;50.246;14.320;2023-05-10T11:53:02;99103.13;;;22.43;36.63
77351;BME280;66420;50.246;14.320;2023-05-10T11:55:47;99087.19;;;21.97;37.25
77351;BME280;66420;50.246;14.320;2023-05-10T11:58:33;99094.75;;;22.15;37.35
77351;BME280;66420;50.246;14.320;2023-05-10T12:01:18;99091.19;;;22.03;37.94
77351;BME280;66420;50.246;14.320;2023-05-10T12:04:02;99099.16;;;22.37;38.90
77351;BME280;66420;50.246;14.320;2023-05-10T12:06:47;99091.19;;;22.03;37.44
77351;BME280;66420;50.246;14.320;2023-05-10T12:09:32;99094.25;;;21.63;38.17
77351;BME280;66420;50.246;14.320;2023-05-10T12:12:17;99105.41;;;21.66;37.43
77351;BME280;66420;50.246;14.320;2023-05-10T12:15:02;99100.59;;;21.49;37.20
77351;BME280;66420;50.246;14.320;2023-05-10T12:17:48;99100.50;;;21.32;36.82
77351;BME280;66420;50.246;14.320;2023-05-10T12:20:33;99099.66;;;21.20;37.31
77351;BME280;66420;50.246;14.320;2023-05-10T12:23:19;99104.31;;;21.06;37.97
77351;BME280;66420;50.246;14.320;2023-05-10T12:26:05;99109.81;;;20.95;39.91
77351;BME280;66420;50.246;14.320;2023-05-10T12:28:50;99110.91;;;20.76;39.61
77351;BME280;66420;50.246;14.320;2023-05-10T12:34:39;99111.50;;;20.49;38.95
77351;BME280;66420;50.246;14.320;2023-05-10T12:37:27;99111.09;;;20.47;39.40
77351;BME280;66420;50.246;14.320;2023-05-10T12:40:12;99111.19;;;20.61;39.92
77351;BME280;66420;50.246;14.320;2023-05-10T12:42:57;99109.56;;;20.56;39.51
77351;BME280;66420;50.246;14.320;2023-05-10T12:45:41;99109.22;;;20.61;39.98
77351;BME280;66420;50.246;14.320;2023-05-10T12:48:26;99109.59;;;20.60;40.24
77351;BME280;66420;50.246;14.320;2023-05-10T12:51:13;99115.13;;;20.53;39.93
77351;BME280;66420;50.246;14.320;2023-05-10T12:54:00;99106.25;;;20.40;40.41
77351;BME280;66420;50.246;14.320;2023-05-10T12:56:44;99109.44;;;20.39;40.12
77351;BME280;66420;50.246;14.320;2023-05-10T12:59:29;99115.69;;;20.28;40.82
77351;BME280;66420;50.246;14.320;2023-05-10T13:02:14;99114.84;;;20.24;41.42
77351;BME280;66420;50.246;14.320;2023-05-10T13:04:59;99114.03;;;20.24;41.18
77351;BME280;66420;50.246;14.320;2023-05-10T13:07:44;99109.00;;;20.37;41.41
77351;BME280;66420;50.246;14.320;2023-05-10T13:10:30;99111.41;;;20.34;40.98
77351;BME280;66420;50.246;14.320;2023-05-10T13:13:15;99110.34;;;20.09;40.73
77351;BME280;66420;50.246;14.320;2023-05-10T13:16:00;99100.66;;;19.92;40.78
77351;BME280;66420;50.246;14.320;2023-05-10T13:18:45;99108.59;;;19.94;41.01
77351;BME280;66420;50.246;14.320;2023-05-10T13:21:29;99116.88;;;19.87;40.99
77351;BME280;66420;50.246;14.320;2023-05-10T13:24:15;99111.31;;;19.87;42.32
77351;BME280;66420;50.246;14.320;2023-05-10T13:27:00;99106.56;;;19.87;42.62
77351;BME280;66420;50.246;14.320;2023-05-10T13:29:44;99103.31;;;19.82;41.95
77351;BME280;66420;50.246;14.320;2023-05-10T13:32:29;99104.16;;;19.86;42.52
77351;BME280;66420;50.246;14.320;2023-05-10T13:35:14;99108.09;;;19.85;41.52
77351;BME280;66420;50.246;14.320;2023-05-10T13:37:59;99100.19;;;19.87;41.95
77351;BME280;66420;50.246;14.320;2023-05-10T13:40:44;99096.09;;;19.74;42.25
77351;BME280;66420;50.246;14.320;2023-05-10T13:43:29;99102.06;;;19.76;42.10
77351;BME280;66420;50.246;14.320;2023-05-10T13:46:13;99092.25;;;19.85;42.73
77351;BME280;66420;50.246;14.320;2023-05-10T13:48:58;99094.31;;;19.92;43.87
77351;BME280;66420;50.246;14.320;2023-05-10T13:51:43;99098.72;;;19.97;43.16
77351;BME280;66420;50.246;14.320;2023-05-10T13:54:27;99100.59;;;19.89;42.66
77351;BME280;66420;50.246;14.320;2023-05-10T13:57:14;99096.13;;;19.77;43.29
77351;BME280;66420;50.246;14.320;2023-05-10T14:00:01;99093.22;;;19.67;42.92
77351;BME280;66420;50.246;14.320;2023-05-10T14:02:46;99105.44;;;19.59;43.46
77351;BME280;66420;50.246;14.320;2023-05-10T14:05:30;99100.53;;;19.15;47.56
77351;BME280;66420;50.246;14.320;2023-05-10T14:08:15;99105.97;;;18.78;50.18
77351;BME280;66420;50.246;14.320;2023-05-10T14:11:00;99107.19;;;18.54;51.28
77351;BME280;66420;50.246;14.320;2023-05-10T14:13:44;99105.91;;;18.26;52.00
77351;BME280;66420;50.246;14.320;2023-05-10T14:16:29;99109.03;;;18.24;52.71
77351;BME280;66420;50.246;14.320;2023-05-10T14:19:14;99105.84;;;18.22;52.53
77351;BME280;66420;50.246;14.320;2023-05-10T14:21:59;99108.47;;;18.15;53.01
77351;BME280;66420;50.246;14.320;2023-05-10T14:24:44;99103.13;;;18.03;53.31
77351;BME280;66420;50.246;14.320;2023-05-10T14:27:31;99101.13;;;18.00;52.70
77351;BME280;66420;50.246;14.320;2023-05-10T14:30:16;99111.69;;;17.94;53.53
77351;BME280;66420;50.246;14.320;2023-05-10T14:33:02;99109.38;;;17.96;52.84
77351;BME280;66420;50.246;14.320;2023-05-10T14:35:47;99109.47;;;18.03;53.26
77351;BME280;66420;50.246;14.320;2023-05-10T14:38:31;99116.44;;;17.94;53.56
77351;BME280;66420;50.246;14.320;2023-05-10T14:41:16;99117.63;;;17.73;53.84
77351;BME280;66420;50.246;14.320;2023-05-10T14:44:01;99108.84;;;17.68;54.32
77351;BME280;66420;50.246;14.320;2023-05-10T14:46:47;99113.19;;;17.50;55.09
77351;BME280;66420;50.246;14.320;2023-05-10T14:49:33;99113.69;;;17.55;54.92
77351;BME280;66420;50.246;14.320;2023-05-10T14:52:17;99115.91;;;17.65;55.00
77351;BME280;66420;50.246;14.320;2023-05-10T14:55:02;99121.44;;;17.65;55.64
77351;BME280;66420;50.246;14.320;2023-05-10T14:57:47;99111.03;;;17.59;54.80
77351;BME280;66420;50.246;14.320;2023-05-10T15:00:33;99114.59;;;17.59;54.98
77351;BME280;66420;50.246;14.320;2023-05-10T15:03:18;99123.53;;;17.53;54.71
77351;BME280;66420;50.246;14.320;2023-05-10T15:06:03;99121.31;;;17.58;55.04
77351;BME280;66420;50.246;14.320;2023-05-10T15:08:48;99125.94;;;17.54;53.70
77351;BME280;66420;50.246;14.320;2023-05-10T15:11:33;99127.72;;;17.62;54.04
77351;BME280;66420;50.246;14.320;2023-05-10T15:14:17;99135.19;;;17.81;54.40
77351;BME280;66420;50.246;14.320;2023-05-10T15:17:02;99144.47;;;17.92;54.02
77351;BME280;66420;50.246;14.320;2023-05-10T15:19:50;99137.34;;;17.91;54.54
77351;BME280;66420;50.246;14.320;2023-05-10T15:22:35;99140.59;;;17.97;55.00
77351;BME280;66420;50.246;14.320;2023-05-10T15:25:20;99145.84;;;18.02;53.99
77351;BME280;66420;50.246;14.320;2023-05-10T15:28:05;99152.78;;;17.92;52.90
77351;BME280;66420;50.246;14.320;2023-05-10T15:30:50;99150.84;;;17.73;53.41
77351;BME280;66420;50.246;14.320;2023-05-10T15:33:37;99150.25;;;17.84;54.55
77351;BME280;66420;50.246;14.320;2023-05-10T15:36:21;99145.22;;;17.89;54.14
77351;BME280;66420;50.246;14.320;2023-05-10T15:39:06;99148.25;;;18.03;55.14
77351;BME280;66420;50.246;14.320;2023-05-10T15:41:51;99144.19;;;18.20;54.28
77351;BME280;66420;50.246;14.320;2023-05-10T15:44:36;99152.13;;;18.22;53.97
77351;BME280;66420;50.246;14.320;2023-05-10T15:47:23;99139.91;;;18.23;53.09
77351;BME280;66420;50.246;14.320;2023-05-10T15:50:08;99140.16;;;18.14;54.10
77351;BME280;66420;50.246;14.320;2023-05-10T15:52:53;99142.91;;;18.14;54.34
77351;BME280;66420;50.246;14.320;2023-05-10T15:55:37;99143.50;;;18.04;53.30
77351;BME280;66420;50.246;14.320;2023-05-10T15:58:22;99141.25;;;18.09;53.55
77351;BME280;66420;50.246;14.320;2023-05-10T16:01:06;99141.81;;;18.19;53.18
77351;BME280;66420;50.246;14.320;2023-05-10T16:03:52;99145.78;;;18.21;54.09
77351;BME280;66420;50.246;14.320;2023-05-10T16:06:36;99138.22;;;18.18;54.07
77351;BME280;66420;50.246;14.320;2023-05-10T16:09:21;99144.69;;;18.03;54.07
77351;BME280;66420;50.246;14.320;2023-05-10T16:12:07;99146.13;;;17.97;54.04
77351;BME280;66420;50.246;14.320;2023-05-10T16:14:51;99145.03;;;18.01;55.00
77351;BME280;66420;50.246;14.320;2023-05-10T16:17:36;99133.91;;;17.98;54.20
77351;BME280;66420;50.246;14.320;2023-05-10T16:20:21;99143.81;;;17.99;54.86
77351;BME280;66420;50.246;14.320;2023-05-10T16:23:06;99141.69;;;17.92;53.25
77351;BME280;66420;50.246;14.320;2023-05-10T16:25:51;99142.94;;;17.95;54.24
77351;BME280;66420;50.246;14.320;2023-05-10T16:28:36;99136.84;;;17.86;54.08
77351;BME280;66420;50.246;14.320;2023-05-10T16:31:21;99144.41;;;17.89;55.03
77351;BME280;66420;50.246;14.320;2023-05-10T16:34:05;99145.56;;;17.88;54.51
77351;BME280;66420;50.246;14.320;2023-05-10T16:36:50;99143.91;;;17.83;54.87